sensor_id;sensor_type;location;lat;lon;timestamp;temperature;humidity
30288;DHT22;17103;48.316;11.558;2024-03-23T00:51:29;16.90;36.30
30288;DHT22;17103;48.316;11.558;2024-03-23T00:53:54;17.60;37.00
30288;DHT22;17103;48.316;11.558;2024-03-23T00:56:20;17.50;36.80
30288;DHT22;17103;48.316;11.558;2024-03-23T00:58:45;16.90;36.20
30288;DHT22;17103;48.316;11.558;2024-03-23T01:01:11;17.70;36.90
30288;DHT22;17103;48.316;11.558;2024-03-23T01:03:37;17.00;36.30
30288;DHT22;17103;48.316;11.558;2024-03-23T01:06:03;17.00;36.30
30288;DHT22;17103;48.316;11.558;2024-03-23T01:08:32;17.10;36.30
30288;DHT22;17103;48.316;11.558;2024-03-23T01:11:01;18.00;37.00
30288;DHT22;17103;48.316;11.558;2024-03-23T01:13:29;17.10;36.10
30288;DHT22;17103;48.316;11.558;2024-03-23T01:15:56;17.10;36.10
30288;DHT22;17103;48.316;11.558;2024-03-23T01:18:23;17.20;36.00
30288;DHT22;17103;48.316;11.558;2024-03-23T01:20:50;17.50;36.00
30288;DHT22;17103;48.316;11.558;2024-03-23T01:23:16;17.30;35.90
30288;DHT22;17103;48.316;11.558;2024-03-23T01:25:43;17.10;35.60
30288;DHT22;17103;48.316;11.558;2024-03-23T01:28:10;17.10;35.70
30288;DHT22;17103;48.316;11.558;2024-03-23T01:30:35;17.30;35.90
30288;DHT22;17103;48.316;11.558;2024-03-23T01:33:02;17.00;35.70
30288;DHT22;17103;48.316;11.558;2024-03-23T01:35:29;17.00;35.80
30288;DHT22;17103;48.316;11.558;2024-03-23T01:37:55;17.10;36.10
30288;DHT22;17103;48.316;11.558;2024-03-23T01:40:21;17.70;36.70
30288;DHT22;17103;48.316;11.558;2024-03-23T01:43:04;16.90;36.20
30288;DHT22;17103;48.316;11.558;2024-03-23T01:45:30;16.90;36.10
30288;DHT22;17103;48.316;11.558;2024-03-23T01:47:56;16.90;36.10
30288;DHT22;17103;48.316;11.558;2024-03-23T01:50:22;17.20;36.30
30288;DHT22;17103;48.316;11.558;2024-03-23T01:52:49;16.80;36.20
30288;DHT22;17103;48.316;11.558;2024-03-23T01:55:15;17.60;36.70
30288;DHT22;17103;48.316;11.558;2024-03-23T01:57:41;16.90;36.30
30288;DHT22;17103;48.316;11.558;2024-03-23T02:00:08;16.60;36.20
30288;DHT22;17103;48.316;11.558;2024-03-23T02:02:35;16.50;36.40
30288;DHT22;17103;48.316;11.558;2024-03-23T02:05:00;16.50;36.50
30288;DHT22;17103;48.316;11.558;2024-03-23T02:07:27;17.60;37.40
30288;DHT22;17103;48.316;11.558;2024-03-23T02:09:53;16.40;36.70
30288;DHT22;17103;48.316;11.558;2024-03-23T02:13:01;16.30;36.50
30288;DHT22;17103;48.316;11.558;2024-03-23T02:15:46;16.20;36.80
30288;DHT22;17103;48.316;11.558;2024-03-23T02:18:12;16.10;36.90
30288;DHT22;17103;48.316;11.558;2024-03-23T02:20:38;17.10;37.90
30288;DHT22;17103;48.316;11.558;2024-03-23T02:23:05;16.50;37.20
30288;DHT22;17103;48.316;11.558;2024-03-23T02:25:33;15.90;36.80
30288;DHT22;17103;48.316;11.558;2024-03-23T02:28:00;16.80;37.80
30288;DHT22;17103;48.316;11.558;2024-03-23T02:30:26;15.80;37.30
30288;DHT22;17103;48.316;11.558;2024-03-23T02:32:52;15.80;37.40
30288;DHT22;17103;48.316;11.558;2024-03-23T02:35:18;15.70;37.30
30288;DHT22;17103;48.316;11.558;2024-03-23T02:37:43;14.90;36.70
30288;DHT22;17103;48.316;11.558;2024-03-23T02:40:09;15.70;37.40
30288;DHT22;17103;48.316;11.558;2024-03-23T02:42:35;16.60;38.10
30288;DHT22;17103;48.316;11.558;2024-03-23T02:45:00;15.70;37.40
30288;DHT22;17103;48.316;11.558;2024-03-23T02:47:26;16.90;38.40
30288;DHT22;17103;48.316;11.558;2024-03-23T02:49:52;15.80;37.50
30288;DHT22;17103;48.316;11.558;2024-03-23T02:52:20;15.80;37.50
30288;DHT22;17103;48.316;11.558;2024-03-23T02:54:46;17.00;38.30
30288;DHT22;17103;48.316;11.558;2024-03-23T02:57:11;15.70;36.90
30288;DHT22;17103;48.316;11.558;2024-03-23T02:59:37;15.70;37.30
30288;DHT22;17103;48.316;11.558;2024-03-23T03:02:03;16.70;38.10
30288;DHT22;17103;48.316;11.558;2024-03-23T03:04:35;15.50;37.20
30288;DHT22;17103;48.316;11.558;2024-03-23T03:07:01;15.00;36.90
30288;DHT22;17103;48.316;11.558;2024-03-23T03:09:27;15.80;38.00
30288;DHT22;17103;48.316;11.558;2024-03-23T03:11:52;16.50;38.20
30288;DHT22;17103;48.316;11.558;2024-03-23T03:14:18;16.50;38.50
30288;DHT22;17103;48.316;11.558;2024-03-23T03:16:44;16.50;38.60
30288;DHT22;17103;48.316;11.558;2024-03-23T03:19:10;15.80;38.00
30288;DHT22;17103;48.316;11.558;2024-03-23T03:21:36;15.60;37.80
30288;DHT22;17103;48.316;11.558;2024-03-23T03:24:02;15.20;37.50
30288;DHT22;17103;48.316;11.558;2024-03-23T03:26:28;15.30;37.60
30288;DHT22;17103;48.316;11.558;2024-03-23T03:28:54;15.20;37.70
30288;DHT22;17103;48.316;11.558;2024-03-23T03:31:20;14.10;37.00
30288;DHT22;17103;48.316;11.558;2024-03-23T03:33:46;16.10;38.80
30288;DHT22;17103;48.316;11.558;2024-03-23T03:36:12;16.10;38.80
30288;DHT22;17103;48.316;11.558;2024-03-23T03:38:37;16.40;39.10
30288;DHT22;17103;48.316;11.558;2024-03-23T03:41:06;16.10;39.00
30288;DHT22;17103;48.316;11.558;2024-03-23T03:43:32;16.20;39.20
30288;DHT22;17103;48.316;11.558;2024-03-23T03:46:00;15.00;38.20
30288;DHT22;17103;48.316;11.558;2024-03-23T03:48:26;15.90;39.10
30288;DHT22;17103;48.316;11.558;2024-03-23T03:50:52;15.60;38.60
30288;DHT22;17103;48.316;11.558;2024-03-23T03:53:18;15.00;38.20
30288;DHT22;17103;48.316;11.558;2024-03-23T03:55:44;15.50;38.60
30288;DHT22;17103;48.316;11.558;2024-03-23T03:58:10;15.20;38.60
30288;DHT22;17103;48.316;11.558;2024-03-23T04:00:35;15.40;38.80
30288;DHT22;17103;48.316;11.558;2024-03-23T04:03:01;16.30;39.50
30288;DHT22;17103;48.316;11.558;2024-03-23T04:05:28;15.30;38.90
30288;DHT22;17103;48.316;11.558;2024-03-23T04:07:54;16.10;39.40
30288;DHT22;17103;48.316;11.558;2024-03-23T04:10:21;15.40;38.90
30288;DHT22;17103;48.316;11.558;2024-03-23T04:12:47;15.10;38.70
30288;DHT22;17103;48.316;11.558;2024-03-23T04:15:13;15.10;38.60
30288;DHT22;17103;48.316;11.558;2024-03-23T04:17:39;15.20;38.60
30288;DHT22;17103;48.316;11.558;2024-03-23T04:20:05;16.40;39.70
30288;DHT22;17103;48.316;11.558;2024-03-23T04:22:34;15.10;38.60
30288;DHT22;17103;48.316;11.558;2024-03-23T04:25:00;15.40;39.00
30288;DHT22;17103;48.316;11.558;2024-03-23T04:27:35;15.20;38.70
30288;DHT22;17103;48.316;11.558;2024-03-23T04:30:01;15.10;38.90
30288;DHT22;17103;48.316;11.558;2024-03-23T04:32:27;16.10;39.60
30288;DHT22;17103;48.316;11.558;2024-03-23T04:34:54;15.10;38.90
30288;DHT22;17103;48.316;11.558;2024-03-23T04:37:20;15.10;39.00
30288;DHT22;17103;48.316;11.558;2024-03-23T04:39:46;15.70;39.40
30288;DHT22;17103;48.316;11.558;2024-03-23T04:42:14;15.50;39.60
30288;DHT22;17103;48.316;11.558;2024-03-23T04:44:40;15.30;39.20
30288;DHT22;17103;48.316;11.558;2024-03-23T04:47:05;15.20;39.10
30288;DHT22;17103;48.316;11.558;2024-03-23T04:49:31;15.90;39.50
30288;DHT22;17103;48.316;11.558;2024-03-23T04:51:56;16.00;39.70
30288;DHT22;17103;48.316;11.558;2024-03-23T04:54:22;15.20;39.30
30288;DHT22;17103;48.316;11.558;2024-03-23T04:56:48;15.20;39.00
30288;DHT22;17103;48.316;11.558;2024-03-23T04:59:13;15.20;39.00
30288;DHT22;17103;48.316;11.558;2024-03-23T05:01:39;16.50;40.00
30288;DHT22;17103;48.316;11.558;2024-03-23T05:04:07;16.40;39.90
30288;DHT22;17103;48.316;11.558;2024-03-23T05:06:33;15.30;39.10
30288;DHT22;17103;48.316;11.558;2024-03-23T05:09:00;16.10;39.90
30288;DHT22;17103;48.316;11.558;2024-03-23T05:11:27;15.30;39.20
30288;DHT22;17103;48.316;11.558;2024-03-23T05:13:53;15.30;39.20
30288;DHT22;17103;48.316;11.558;2024-03-23T05:16:18;15.20;39.30
30288;DHT22;17103;48.316;11.558;2024-03-23T05:18:44;15.60;39.60
30288;DHT22;17103;48.316;11.558;2024-03-23T05:21:10;16.10;40.20
30288;DHT22;17103;48.316;11.558;2024-03-23T05:23:36;16.50;40.40
30288;DHT22;17103;48.316;11.558;2024-03-23T05:26:05;15.70;39.70
30288;DHT22;17103;48.316;11.558;2024-03-23T05:28:31;15.20;39.40
30288;DHT22;17103;48.316;11.558;2024-03-23T05:30:56;15.20;39.20
30288;DHT22;17103;48.316;11.558;2024-03-23T05:33:22;15.20;39.40
30288;DHT22;17103;48.316;11.558;2024-03-23T05:36:00;15.80;39.90
30288;DHT22;17103;48.316;11.558;2024-03-23T05:38:26;15.30;39.40
30288;DHT22;17103;48.316;11.558;2024-03-23T05:40:55;15.30;39.40
30288;DHT22;17103;48.316;11.558;2024-03-23T05:43:21;15.30;39.50
30288;DHT22;17103;48.316;11.558;2024-03-23T05:45:57;15.30;39.30
30288;DHT22;17103;48.316;11.558;2024-03-23T05:48:25;16.40;40.80
30288;DHT22;17103;48.316;11.558;2024-03-23T05:50:53;15.50;39.60
30288;DHT22;17103;48.316;11.558;2024-03-23T05:53:19;15.40;39.30
30288;DHT22;17103;48.316;11.558;2024-03-23T05:55:49;15.90;39.80
30288;DHT22;17103;48.316;11.558;2024-03-23T05:58:17;15.50;39.50
30288;DHT22;17103;48.316;11.558;2024-03-23T06:00:44;15.50;39.40
30288;DHT22;17103;48.316;11.558;2024-03-23T06:03:09;15.80;39.50
30288;DHT22;17103;48.316;11.558;2024-03-23T06:05:38;15.90;40.20
30288;DHT22;17103;48.316;11.558;2024-03-23T06:08:04;15.50;39.50
30288;DHT22;17103;48.316;11.558;2024-03-23T06:10:30;15.50;39.40
30288;DHT22;17103;48.316;11.558;2024-03-23T06:12:57;16.00;39.90
30288;DHT22;17103;48.316;11.558;2024-03-23T06:15:24;15.50;39.50
30288;DHT22;17103;48.316;11.558;2024-03-23T06:17:49;15.50;39.50
30288;DHT22;17103;48.316;11.558;2024-03-23T06:20:15;16.20;40.10
30288;DHT22;17103;48.316;11.558;2024-03-23T06:22:41;15.60;39.50
30288;DHT22;17103;48.316;11.558;2024-03-23T06:25:08;16.90;40.60
30288;DHT22;17103;48.316;11.558;2024-03-23T06:27:33;15.70;39.70
30288;DHT22;17103;48.316;11.558;2024-03-23T06:30:00;15.70;39.70
30288;DHT22;17103;48.316;11.558;2024-03-23T06:32:27;16.00;39.90
30288;DHT22;17103;48.316;11.558;2024-03-23T06:34:54;16.70;40.60
30288;DHT22;17103;48.316;11.558;2024-03-23T06:37:20;15.80;39.90
30288;DHT22;17103;48.316;11.558;2024-03-23T06:39:46;15.80;39.90
30288;DHT22;17103;48.316;11.558;2024-03-23T06:42:13;17.00;40.80
30288;DHT22;17103;48.316;11.558;2024-03-23T06:44:39;17.30;40.90
30288;DHT22;17103;48.316;11.558;2024-03-23T06:47:05;16.60;40.70
30288;DHT22;17103;48.316;11.558;2024-03-23T06:49:31;16.00;40.10
30288;DHT22;17103;48.316;11.558;2024-03-23T06:51:57;16.00;40.00
30288;DHT22;17103;48.316;11.558;2024-03-23T06:54:24;16.30;40.30
30288;DHT22;17103;48.316;11.558;2024-03-23T06:56:50;17.00;40.80
30288;DHT22;17103;48.316;11.558;2024-03-23T06:59:16;16.40;40.40
30288;DHT22;17103;48.316;11.558;2024-03-23T07:01:42;16.20;40.10
30288;DHT22;17103;48.316;11.558;2024-03-23T07:04:07;16.40;40.20
30288;DHT22;17103;48.316;11.558;2024-03-23T07:06:33;16.40;40.20
30288;DHT22;17103;48.316;11.558;2024-03-23T07:08:59;17.10;40.60
30288;DHT22;17103;48.316;11.558;2024-03-23T07:11:25;16.70;40.10
30288;DHT22;17103;48.316;11.558;2024-03-23T07:13:54;16.70;39.90
30288;DHT22;17103;48.316;11.558;2024-03-23T07:16:22;16.70;39.60
30288;DHT22;17103;48.316;11.558;2024-03-23T07:18:50;16.80;39.80
30288;DHT22;17103;48.316;11.558;2024-03-23T07:21:16;16.90;39.60
30288;DHT22;17103;48.316;11.558;2024-03-23T07:23:44;18.10;40.70
30288;DHT22;17103;48.316;11.558;2024-03-23T07:26:11;17.70;41.00
30288;DHT22;17103;48.316;11.558;2024-03-23T07:28:38;16.80;42.20
30288;DHT22;17103;48.316;11.558;2024-03-23T07:31:10;17.50;43.70
30288;DHT22;17103;48.316;11.558;2024-03-23T07:33:41;17.70;43.80
30288;DHT22;17103;48.316;11.558;2024-03-23T07:36:07;17.00;43.80
30288;DHT22;17103;48.316;11.558;2024-03-23T07:38:33;17.10;44.20
30288;DHT22;17103;48.316;11.558;2024-03-23T07:41:13;16.40;44.70
30288;DHT22;17103;48.316;11.558;2024-03-23T07:43:40;15.30;44.40
30288;DHT22;17103;48.316;11.558;2024-03-23T07:46:06;16.00;45.90
30288;DHT22;17103;48.316;11.558;2024-03-23T07:48:32;17.10;47.20
30288;DHT22;17103;48.316;11.558;2024-03-23T07:51:07;16.10;46.60
30288;DHT22;17103;48.316;11.558;2024-03-23T07:53:33;17.00;47.60
30288;DHT22;17103;48.316;11.558;2024-03-23T07:56:08;15.90;47.40
30288;DHT22;17103;48.316;11.558;2024-03-23T07:58:37;16.80;48.60
30288;DHT22;17103;48.316;11.558;2024-03-23T08:01:13;15.70;47.60
30288;DHT22;17103;48.316;11.558;2024-03-23T08:03:44;16.50;48.90
30288;DHT22;17103;48.316;11.558;2024-03-23T08:06:12;15.40;48.40
30288;DHT22;17103;48.316;11.558;2024-03-23T08:08:40;15.90;49.20
30288;DHT22;17103;48.316;11.558;2024-03-23T08:11:09;15.90;50.70
30288;DHT22;17103;48.316;11.558;2024-03-23T08:13:35;15.80;49.40
30288;DHT22;17103;48.316;11.558;2024-03-23T08:16:02;14.80;48.50
30288;DHT22;17103;48.316;11.558;2024-03-23T08:18:28;14.60;48.40
30288;DHT22;17103;48.316;11.558;2024-03-23T08:21:05;14.50;48.40
30288;DHT22;17103;48.316;11.558;2024-03-23T08:23:32;14.70;49.20
30288;DHT22;17103;48.316;11.558;2024-03-23T08:26:06;14.70;49.50
30288;DHT22;17103;48.316;11.558;2024-03-23T08:28:32;14.00;49.30
30288;DHT22;17103;48.316;11.558;2024-03-23T08:31:01;13.70;49.80
30288;DHT22;17103;48.316;11.558;2024-03-23T08:33:28;13.70;50.00
30288;DHT22;17103;48.316;11.558;2024-03-23T08:36:01;13.50;50.30
30288;DHT22;17103;48.316;11.558;2024-03-23T08:38:44;14.10;51.30
30288;DHT22;17103;48.316;11.558;2024-03-23T08:41:20;13.20;50.80
30288;DHT22;17103;48.316;11.558;2024-03-23T08:43:46;14.10;52.10
30288;DHT22;17103;48.316;11.558;2024-03-23T08:46:15;13.00;51.70
30288;DHT22;17103;48.316;11.558;2024-03-23T08:48:43;12.80;51.80
30288;DHT22;17103;48.316;11.558;2024-03-23T08:51:12;13.90;52.90
30288;DHT22;17103;48.316;11.558;2024-03-23T08:53:39;11.60;51.30
30288;DHT22;17103;48.316;11.558;2024-03-23T08:56:06;12.60;52.40
30288;DHT22;17103;48.316;11.558;2024-03-23T08:58:33;12.50;52.80
30288;DHT22;17103;48.316;11.558;2024-03-23T09:01:09;12.50;53.00
30288;DHT22;17103;48.316;11.558;2024-03-23T09:03:35;12.40;53.20
30288;DHT22;17103;48.316;11.558;2024-03-23T09:06:06;12.90;53.80
30288;DHT22;17103;48.316;11.558;2024-03-23T09:08:33;12.30;54.10
30288;DHT22;17103;48.316;11.558;2024-03-23T09:11:09;13.60;55.60
30288;DHT22;17103;48.316;11.558;2024-03-23T09:13:36;12.30;55.00
30288;DHT22;17103;48.316;11.558;2024-03-23T09:16:02;12.30;55.30
30288;DHT22;17103;48.316;11.558;2024-03-23T09:18:32;12.30;56.20
30288;DHT22;17103;48.316;11.558;2024-03-23T09:20:58;12.20;56.10
30288;DHT22;17103;48.316;11.558;2024-03-23T09:23:24;12.30;56.60
30288;DHT22;17103;48.316;11.558;2024-03-23T09:25:50;12.20;56.30
30288;DHT22;17103;48.316;11.558;2024-03-23T09:28:15;13.40;58.10
30288;DHT22;17103;48.316;11.558;2024-03-23T09:30:41;12.20;57.40
30288;DHT22;17103;48.316;11.558;2024-03-23T09:33:10;10.90;56.00
30288;DHT22;17103;48.316;11.558;2024-03-23T09:35:40;12.20;56.90
30288;DHT22;17103;48.316;11.558;2024-03-23T09:38:06;12.20;56.90
30288;DHT22;17103;48.316;11.558;2024-03-23T09:40:40;12.10;55.80
30288;DHT22;17103;48.316;11.558;2024-03-23T09:43:06;13.30;56.00
30288;DHT22;17103;48.316;11.558;2024-03-23T09:45:35;12.00;55.00
30288;DHT22;17103;48.316;11.558;2024-03-23T09:48:02;11.90;54.40
30288;DHT22;17103;48.316;11.558;2024-03-23T09:50:28;11.80;54.10
30288;DHT22;17103;48.316;11.558;2024-03-23T09:52:54;11.80;53.20
30288;DHT22;17103;48.316;11.558;2024-03-23T09:55:20;11.80;53.30
30288;DHT22;17103;48.316;11.558;2024-03-23T09:57:46;11.70;52.20
30288;DHT22;17103;48.316;11.558;2024-03-23T10:00:13;11.60;51.80
30288;DHT22;17103;48.316;11.558;2024-03-23T10:02:38;11.50;51.40
30288;DHT22;17103;48.316;11.558;2024-03-23T10:05:05;11.50;51.90
30288;DHT22;17103;48.316;11.558;2024-03-23T10:07:45;11.40;52.10
30288;DHT22;17103;48.316;11.558;2024-03-23T10:10:11;11.40;52.50
30288;DHT22;17103;48.316;11.558;2024-03-23T10:12:47;11.40;52.50
30288;DHT22;17103;48.316;11.558;2024-03-23T10:17:46;11.30;52.60
30288;DHT22;17103;48.316;11.558;2024-03-23T10:20:12;11.30;53.30
30288;DHT22;17103;48.316;11.558;2024-03-23T10:22:38;11.30;53.80
30288;DHT22;17103;48.316;11.558;2024-03-23T10:25:08;12.10;54.00
30288;DHT22;17103;48.316;11.558;2024-03-23T10:27:34;11.20;53.80
30288;DHT22;17103;48.316;11.558;2024-03-23T10:30:11;11.20;53.70
30288;DHT22;17103;48.316;11.558;2024-03-23T10:32:40;11.10;53.60
30288;DHT22;17103;48.316;11.558;2024-03-23T10:35:16;11.10;52.70
30288;DHT22;17103;48.316;11.558;2024-03-23T10:37:44;11.00;51.80
30288;DHT22;17103;48.316;11.558;2024-03-23T10:40:12;11.10;52.00
30288;DHT22;17103;48.316;11.558;2024-03-23T10:42:39;10.90;51.70
30288;DHT22;17103;48.316;11.558;2024-03-23T10:45:09;10.40;50.80
30288;DHT22;17103;48.316;11.558;2024-03-23T10:47:36;10.70;51.80
30288;DHT22;17103;48.316;11.558;2024-03-23T10:50:03;10.10;51.50
30288;DHT22;17103;48.316;11.558;2024-03-23T10:52:29;10.70;51.40
30288;DHT22;17103;48.316;11.558;2024-03-23T10:54:55;11.70;51.90
30288;DHT22;17103;48.316;11.558;2024-03-23T10:57:29;11.40;51.40
30288;DHT22;17103;48.316;11.558;2024-03-23T10:59:58;10.70;51.30
30288;DHT22;17103;48.316;11.558;2024-03-23T11:02:26;9.80;51.10
30288;DHT22;17103;48.316;11.558;2024-03-23T11:04:52;9.70;51.60
30288;DHT22;17103;48.316;11.558;2024-03-23T11:09:57;10.70;51.50
30288;DHT22;17103;48.316;11.558;2024-03-23T11:18:10;9.80;50.00
30288;DHT22;17103;48.316;11.558;2024-03-23T11:20:37;10.90;50.70
30288;DHT22;17103;48.316;11.558;2024-03-23T11:23:04;12.10;51.70
30288;DHT22;17103;48.316;11.558;2024-03-23T11:25:29;11.80;51.70
30288;DHT22;17103;48.316;11.558;2024-03-23T11:27:57;11.10;50.80
30288;DHT22;17103;48.316;11.558;2024-03-23T11:30:24;11.50;51.30
30288;DHT22;17103;48.316;11.558;2024-03-23T11:32:59;11.20;51.10
30288;DHT22;17103;48.316;11.558;2024-03-23T11:35:48;11.30;50.90
30288;DHT22;17103;48.316;11.558;2024-03-23T11:38:18;11.30;50.20
30288;DHT22;17103;48.316;11.558;2024-03-23T11:40:49;11.40;49.70
30288;DHT22;17103;48.316;11.558;2024-03-23T11:43:16;11.50;49.60
30288;DHT22;17103;48.316;11.558;2024-03-23T11:46:09;11.90;48.80
30288;DHT22;17103;48.316;11.558;2024-03-23T11:48:35;12.30;48.00
30288;DHT22;17103;48.316;11.558;2024-03-23T11:51:02;11.50;46.00
30288;DHT22;17103;48.316;11.558;2024-03-23T11:53:28;11.50;44.70
30288;DHT22;17103;48.316;11.558;2024-03-23T11:55:58;12.80;45.00
30288;DHT22;17103;48.316;11.558;2024-03-23T11:58:26;11.40;43.20
30288;DHT22;17103;48.316;11.558;2024-03-23T12:03:22;12.20;43.10
30288;DHT22;17103;48.316;11.558;2024-03-23T12:05:52;11.40;43.50
30288;DHT22;17103;48.316;11.558;2024-03-23T12:10:52;11.30;42.10
30288;DHT22;17103;48.316;11.558;2024-03-23T12:13:20;11.40;41.80
30288;DHT22;17103;48.316;11.558;2024-03-23T12:15:47;12.80;42.20
30288;DHT22;17103;48.316;11.558;2024-03-23T12:18:13;11.60;39.50
30288;DHT22;17103;48.316;11.558;2024-03-23T12:20:39;11.30;39.10
30288;DHT22;17103;48.316;11.558;2024-03-23T12:23:10;11.30;39.50
30288;DHT22;17103;48.316;11.558;2024-03-23T12:25:40;11.30;39.80
30288;DHT22;17103;48.316;11.558;2024-03-23T12:28:07;11.30;40.00
30288;DHT22;17103;48.316;11.558;2024-03-23T12:30:36;11.30;39.00
30288;DHT22;17103;48.316;11.558;2024-03-23T12:33:04;11.30;38.70
30288;DHT22;17103;48.316;11.558;2024-03-23T12:35:30;11.20;39.10
30288;DHT22;17103;48.316;11.558;2024-03-23T12:37:56;11.10;39.00
30288;DHT22;17103;48.316;11.558;2024-03-23T12:40:21;11.10;39.50
30288;DHT22;17103;48.316;11.558;2024-03-23T12:42:47;11.20;40.00
30288;DHT22;17103;48.316;11.558;2024-03-23T12:45:13;11.20;39.30
30288;DHT22;17103;48.316;11.558;2024-03-23T12:47:40;11.20;38.90
30288;DHT22;17103;48.316;11.558;2024-03-23T12:50:06;12.00;39.80
30288;DHT22;17103;48.316;11.558;2024-03-23T12:52:35;10.20;38.80
30288;DHT22;17103;48.316;11.558;2024-03-23T12:55:01;11.20;39.60
30288;DHT22;17103;48.316;11.558;2024-03-23T12:57:28;11.60;39.70
30288;DHT22;17103;48.316;11.558;2024-03-23T12:59:54;11.30;39.80
30288;DHT22;17103;48.316;11.558;2024-03-23T13:02:21;11.30;39.90
30288;DHT22;17103;48.316;11.558;2024-03-23T13:04:50;11.40;39.70
30288;DHT22;17103;48.316;11.558;2024-03-23T13:07:17;10.30;39.10
30288;DHT22;17103;48.316;11.558;2024-03-23T13:09:43;11.40;39.20
30288;DHT22;17103;48.316;11.558;2024-03-23T13:12:11;11.50;39.80
30288;DHT22;17103;48.316;11.558;2024-03-23T13:14:40;11.50;40.00
30288;DHT22;17103;48.316;11.558;2024-03-23T13:17:07;11.40;40.00
30288;DHT22;17103;48.316;11.558;2024-03-23T13:19:33;10.40;39.50
30288;DHT22;17103;48.316;11.558;2024-03-23T13:22:03;11.50;40.30
30288;DHT22;17103;48.316;11.558;2024-03-23T13:24:30;11.50;40.00
30288;DHT22;17103;48.316;11.558;2024-03-23T13:26:59;11.50;40.10
30288;DHT22;17103;48.316;11.558;2024-03-23T13:29:25;12.10;40.80
30288;DHT22;17103;48.316;11.558;2024-03-23T13:32:22;11.50;40.40
30288;DHT22;17103;48.316;11.558;2024-03-23T13:35:07;11.20;40.10
30288;DHT22;17103;48.316;11.558;2024-03-23T13:37:33;12.60;41.10
30288;DHT22;17103;48.316;11.558;2024-03-23T13:39:59;11.60;39.10
30288;DHT22;17103;48.316;11.558;2024-03-23T13:42:26;11.50;39.50
30288;DHT22;17103;48.316;11.558;2024-03-23T13:44:52;11.50;39.80
30288;DHT22;17103;48.316;11.558;2024-03-23T13:47:18;11.50;40.00
30288;DHT22;17103;48.316;11.558;2024-03-23T13:49:45;11.40;40.50
30288;DHT22;17103;48.316;11.558;2024-03-23T13:52:15;11.30;42.00
30288;DHT22;17103;48.316;11.558;2024-03-23T13:54:40;11.20;42.50
30288;DHT22;17103;48.316;11.558;2024-03-23T13:57:11;11.10;42.90
30288;DHT22;17103;48.316;11.558;2024-03-23T13:59:37;11.10;43.30
30288;DHT22;17103;48.316;11.558;2024-03-23T14:02:03;11.00;43.50
30288;DHT22;17103;48.316;11.558;2024-03-23T14:04:33;10.90;43.60
30288;DHT22;17103;48.316;11.558;2024-03-23T14:11:14;10.50;44.10
30288;DHT22;17103;48.316;11.558;2024-03-23T14:13:48;10.70;44.60
30288;DHT22;17103;48.316;11.558;2024-03-23T14:16:14;10.60;44.60
30288;DHT22;17103;48.316;11.558;2024-03-23T14:18:39;11.30;45.70
30288;DHT22;17103;48.316;11.558;2024-03-23T14:21:05;10.50;44.70
30288;DHT22;17103;48.316;11.558;2024-03-23T14:23:32;10.90;45.20
30288;DHT22;17103;48.316;11.558;2024-03-23T14:26:01;11.70;45.90
30288;DHT22;17103;48.316;11.558;2024-03-23T14:28:26;10.60;44.70
30288;DHT22;17103;48.316;11.558;2024-03-23T14:30:55;11.80;45.90
30288;DHT22;17103;48.316;11.558;2024-03-23T14:33:22;10.50;44.70
30288;DHT22;17103;48.316;11.558;2024-03-23T14:35:54;10.50;44.00
30288;DHT22;17103;48.316;11.558;2024-03-23T14:45:32;10.40;42.60
30288;DHT22;17103;48.316;11.558;2024-03-23T14:47:58;10.80;43.30
30288;DHT22;17103;48.316;11.558;2024-03-23T14:50:25;10.30;42.30
30288;DHT22;17103;48.316;11.558;2024-03-23T14:52:54;10.30;41.10
30288;DHT22;17103;48.316;11.558;2024-03-23T14:55:20;11.10;41.60
30288;DHT22;17103;48.316;11.558;2024-03-23T14:57:46;10.10;40.70
30288;DHT22;17103;48.316;11.558;2024-03-23T15:00:12;10.00;40.70
30288;DHT22;17103;48.316;11.558;2024-03-23T15:02:38;10.00;40.80
30288;DHT22;17103;48.316;11.558;2024-03-23T15:05:05;10.10;40.00
30288;DHT22;17103;48.316;11.558;2024-03-23T15:07:34;9.90;41.20
30288;DHT22;17103;48.316;11.558;2024-03-23T15:10:00;9.90;41.30
30288;DHT22;17103;48.316;11.558;2024-03-23T15:12:26;9.90;41.00
30288;DHT22;17103;48.316;11.558;2024-03-23T15:14:52;9.80;41.20
30288;DHT22;17103;48.316;11.558;2024-03-23T15:17:18;9.80;41.50
30288;DHT22;17103;48.316;11.558;2024-03-23T15:19:47;9.80;41.60
30288;DHT22;17103;48.316;11.558;2024-03-23T15:22:13;9.80;41.20
30288;DHT22;17103;48.316;11.558;2024-03-23T15:24:41;9.80;41.40
30288;DHT22;17103;48.316;11.558;2024-03-23T15:27:08;9.80;41.70
30288;DHT22;17103;48.316;11.558;2024-03-23T15:29:34;9.90;41.60
30288;DHT22;17103;48.316;11.558;2024-03-23T15:32:02;9.90;41.50
30288;DHT22;17103;48.316;11.558;2024-03-23T15:34:29;9.90;41.60
30288;DHT22;17103;48.316;11.558;2024-03-23T15:36:54;10.00;41.50
30288;DHT22;17103;48.316;11.558;2024-03-23T15:39:21;10.10;41.30
30288;DHT22;17103;48.316;11.558;2024-03-23T15:41:48;10.10;41.10
30288;DHT22;17103;48.316;11.558;2024-03-23T15:44:14;10.20;40.90
30288;DHT22;17103;48.316;11.558;2024-03-23T15:46:40;10.30;40.90
30288;DHT22;17103;48.316;11.558;2024-03-23T15:49:06;10.40;41.10
30288;DHT22;17103;48.316;11.558;2024-03-23T15:51:32;10.40;41.00
30288;DHT22;17103;48.316;11.558;2024-03-23T15:54:04;10.40;40.60
30288;DHT22;17103;48.316;11.558;2024-03-23T15:56:30;10.50;40.70
30288;DHT22;17103;48.316;11.558;2024-03-23T15:58:56;11.50;41.70
30288;DHT22;17103;48.316;11.558;2024-03-23T16:01:26;10.60;41.00
30288;DHT22;17103;48.316;11.558;2024-03-23T16:03:51;10.70;41.30
30288;DHT22;17103;48.316;11.558;2024-03-23T16:06:17;10.70;41.20
30288;DHT22;17103;48.316;11.558;2024-03-23T16:08:43;10.80;41.10
30288;DHT22;17103;48.316;11.558;2024-03-23T16:11:09;10.90;41.40
30288;DHT22;17103;48.316;11.558;2024-03-23T16:13:35;10.90;41.10
30288;DHT22;17103;48.316;11.558;2024-03-23T16:16:03;11.00;41.40
30288;DHT22;17103;48.316;11.558;2024-03-23T16:18:30;11.00;41.30
30288;DHT22;17103;48.316;11.558;2024-03-23T16:20:57;11.30;40.90
30288;DHT22;17103;48.316;11.558;2024-03-23T16:23:23;11.10;40.40
30288;DHT22;17103;48.316;11.558;2024-03-23T16:25:55;11.10;40.60
30288;DHT22;17103;48.316;11.558;2024-03-23T16:28:32;11.00;39.80
30288;DHT22;17103;48.316;11.558;2024-03-23T16:31:07;11.00;40.10
30288;DHT22;17103;48.316;11.558;2024-03-23T16:33:36;10.90;39.80
30288;DHT22;17103;48.316;11.558;2024-03-23T16:36:07;11.00;40.10
30288;DHT22;17103;48.316;11.558;2024-03-23T16:38:38;11.00;39.70